Time;durP1;ratioP1;P1;durP2;ratioP2;P2;SDS_P1;SDS_P2;PMS_P1;PMS_P2;Temp;Humidity;BMP_temperature;BMP_pressure;BME280_temperature;BME280_humidity;BME280_pressure;Samples;Min_cycle;Max_cycle;Signal;HPM_P1;HPM_P2
2022/11/14 00:00:06;;;;;;;346.67;125.90;;;;;;;7.71;93.04;100823.25;349038;28;1379;-74
2022/11/14 00:00:16;;;;;;;346.25;127.78;;;;;;;7.73;93.02;100824.09;349042;28;1180;-75
2022/11/14 00:00:27;;;;;;;343.77;129.83;;;;;;;7.73;93.04;100813.69;348914;28;896;-74
2022/11/14 00:00:38;;;;;;;344.33;130.60;;;;;;;7.74;93.33;100818.00;350168;28;1211;-74
2022/11/14 00:00:48;;;;;;;346.70;129.60;;;;;;;7.74;93.54;100820.63;347656;28;1246;-74
2022/11/14 00:00:58;;;;;;;346.30;128.73;;;;;;;7.73;93.57;100817.16;348859;28;1901;-74
2022/11/14 00:01:10;;;;;;;345.88;126.38;;;;;;;7.74;93.36;100818.00;349041;28;1942;-75
2022/11/14 00:01:20;;;;;;;343.85;125.78;;;;;;;7.73;93.39;100821.50;350344;28;879;-74
2022/11/14 00:01:31;;;;;;;345.30;124.63;;;;;;;7.72;93.30;100819.78;350222;28;1417;-74
2022/11/14 00:01:42;;;;;;;346.33;124.53;;;;;;;7.72;92.99;100819.78;346031;28;1586;-74
2022/11/14 00:01:52;;;;;;;349.53;125.23;;;;;;;7.71;93.23;100820.66;348859;28;1613;-74
2022/11/14 00:02:02;;;;;;;347.25;126.38;;;;;;;7.71;93.28;100818.03;348152;28;1705;-74
2022/11/14 00:02:14;;;;;;;346.80;129.23;;;;;;;7.71;93.21;100812.84;347751;28;1732;-74
2022/11/14 00:02:25;;;;;;;343.65;128.52;;;;;;;7.72;92.88;100811.94;346022;28;1450;-74
2022/11/14 00:02:36;;;;;;;346.13;129.15;;;;;;;7.71;93.30;100820.66;344647;28;1372;-73
2022/11/14 00:02:46;;;;;;;347.90;129.57;;;;;;;7.70;93.51;100821.53;343704;28;1219;-73
2022/11/14 00:03:01;;;;;;;348.40;129.30;;;;;;;7.68;93.22;100819.78;342387;28;1101;-74
2022/11/14 00:03:12;;;;;;;347.63;128.43;;;;;;;7.69;93.12;100818.06;343668;28;1575;-75
2022/11/14 00:03:22;;;;;;;344.90;127.07;;;;;;;7.68;93.34;100813.72;343440;28;1946;-73
2022/11/14 00:03:32;;;;;;;345.30;126.43;;;;;;;7.69;93.08;100820.66;340858;28;1472;-74
2022/11/14 00:03:43;;;;;;;346.37;126.80;;;;;;;7.67;93.10;100820.69;340923;29;877;-74
2022/11/14 00:03:53;;;;;;;348.80;128.63;;;;;;;7.68;93.18;100819.78;340138;29;854;-74
2022/11/14 00:04:04;;;;;;;348.90;130.37;;;;;;;7.68;93.51;100819.78;340686;28;846;-74
2022/11/14 00:04:14;;;;;;;348.05;129.75;;;;;;;7.68;93.10;100818.94;345746;28;1365;-74
2022/11/14 00:04:24;;;;;;;350.37;130.97;;;;;;;7.66;93.52;100821.56;345097;28;1408;-74
2022/11/14 00:04:35;;;;;;;348.52;130.48;;;;;;;7.64;93.24;100820.69;343704;28;1038;-75
2022/11/14 00:04:46;;;;;;;346.60;131.23;;;;;;;7.64;93.20;100818.09;346329;28;880;-73
2022/11/14 00:04:56;;;;;;;345.38;129.20;;;;;;;7.65;93.15;100812.00;341008;28;1115;-73
2022/11/14 00:05:08;;;;;;;344.20;127.90;;;;;;;7.64;92.85;100817.22;338053;29;2053;-72
2022/11/14 00:05:18;;;;;;;348.42;128.77;;;;;;;7.64;93.27;100814.63;340856;28;1910;-73
2022/11/14 00:05:29;;;;;;;348.75;130.32;;;;;;;7.63;93.78;100816.38;343541;28;1442;-74
2022/11/14 00:05:41;;;;;;;355.27;131.80;;;;;;;7.62;93.16;100816.38;343497;28;1174;-73
2022/11/14 00:05:51;;;;;;;351.00;130.48;;;;;;;7.62;93.93;100813.78;344044;28;1465;-73
2022/11/14 00:06:04;;;;;;;348.60;128.23;;;;;;;7.61;93.51;100818.13;342514;28;2017;-74
2022/11/14 00:06:15;;;;;;;344.88;123.32;;;;;;;7.60;93.48;100811.19;338129;29;1652;-74
2022/11/14 00:06:25;;;;;;;344.67;123.10;;;;;;;7.61;93.39;100812.06;338508;29;1363;-73
2022/11/14 00:06:35;;;;;;;347.23;124.93;;;;;;;7.61;93.46;100814.66;336956;29;1534;-73
2022/11/14 00:06:46;;;;;;;348.40;126.10;;;;;;;7.62;93.71;100813.78;336934;29;1232;-73
2022/11/14 00:06:56;;;;;;;349.80;127.43;;;;;;;7.60;93.29;100810.31;335487;29;1379;-73
2022/11/14 00:07:07;;;;;;;347.77;127.53;;;;;;;7.59;93.64;100814.66;336177;29;1595;-73
2022/11/14 00:07:17;;;;;;;347.58;129.00;;;;;;;7.60;93.66;100816.41;340534;29;1180;-73
2022/11/14 00:07:31;;;;;;;346.37;128.10;;;;;;;7.60;93.92;100815.53;341883;28;1950;-74
2022/11/14 00:07:41;;;;;;;349.02;128.00;;;;;;;7.59;94.01;100814.66;338110;29;2537;-74
2022/11/14 00:07:51;;;;;;;347.60;127.73;;;;;;;7.59;93.64;100812.06;336894;29;898;-75
2022/11/14 00:08:02;;;;;;;354.25;130.15;;;;;;;7.59;93.82;100817.28;337014;29;874;-74
2022/11/14 00:08:17;;;;;;;354.67;130.23;;;;;;;7.60;94.12;100811.19;334545;29;1464;-74
2022/11/14 00:08:27;;;;;;;352.17;128.52;;;;;;;7.60;94.00;100816.41;334183;29;1514;-74
2022/11/14 00:08:38;;;;;;;349.13;130.73;;;;;;;7.59;94.01;100813.81;330363;29;1958;-73
2022/11/14 00:08:48;;;;;;;349.63;129.38;;;;;;;7.58;93.52;100810.34;327370;30;1587;-73
2022/11/14 00:08:59;;;;;;;353.47;130.77;;;;;;;7.58;94.14;100812.09;327326;30;1611;-74
2022/11/14 00:09:09;;;;;;;350.17;127.72;;;;;;;7.59;93.79;100809.47;324914;30;2010;-74
2022/11/14 00:09:24;;;;;;;347.67;128.40;;;;;;;7.61;93.54;100810.31;324392;30;2265;-74
2022/11/14 00:09:36;;;;;;;345.55;127.82;;;;;;;7.60;93.56;100811.19;324871;29;1633;-74
2022/11/14 00:09:46;;;;;;;343.20;125.82;;;;;;;7.60;93.52;100808.59;325563;30;1458;-74
2022/11/14 00:09:57;;;;;;;345.37;127.20;;;;;;;7.60;93.88;100807.72;324427;30;896;-74
2022/11/14 00:10:07;;;;;;;348.67;129.77;;;;;;;7.57;93.85;100815.56;323983;30;1094;-74
2022/11/14 00:10:18;;;;;;;351.00;131.80;;;;;;;7.57;93.51;100811.22;323244;30;1356;-74
2022/11/14 00:10:28;;;;;;;347.88;128.30;;;;;;;7.58;93.81;100806.88;325242;30;1769;-74
2022/11/14 00:10:38;;;;;;;346.17;128.53;;;;;;;7.58;93.92;100812.94;322870;30;2085;-74
2022/11/14 00:10:49;;;;;;;346.23;128.98;;;;;;;7.58;93.40;100818.16;321027;30;2327;-74
2022/11/14 00:11:00;;;;;;;347.95;131.00;;;;;;;7.58;93.59;100809.47;322070;30;2021;-73
2022/11/14 00:11:11;;;;;;;352.10;131.20;;;;;;;7.57;93.75;100811.22;322037;30;2277;-73
2022/11/14 00:11:21;;;;;;;351.10;129.63;;;;;;;7.56;93.84;100809.50;321016;30;2533;-73
2022/11/14 00:11:31;;;;;;;350.87;130.87;;;;;;;7.57;94.10;100815.56;322129;30;1362;-73
2022/11/14 00:11:42;;;;;;;352.20;130.37;;;;;;;7.57;93.57;100806.00;322604;30;2729;-74
2022/11/14 00:11:53;;;;;;;349.70;129.33;;;;;;;7.55;93.64;100807.75;320685;30;1729;-74
2022/11/14 00:12:03;;;;;;;350.33;129.80;;;;;;;7.54;94.14;100811.25;319879;30;878;-74
2022/11/14 00:12:14;;;;;;;345.30;126.25;;;;;;;7.52;93.91;100810.38;319679;30;1250;-73
2022/11/14 00:12:24;;;;;;;348.07;127.33;;;;;;;7.49;94.09;100802.59;319451;30;2033;-73
2022/11/14 00:12:34;;;;;;;347.00;125.75;;;;;;;7.50;93.96;100801.72;317592;30;2692;-73
2022/11/14 00:12:45;;;;;;;346.40;128.97;;;;;;;7.51;93.97;100800.84;315135;31;927;-73
2022/11/14 00:12:55;;;;;;;347.38;128.35;;;;;;;7.53;94.37;100808.66;313496;31;3022;-73
2022/11/14 00:13:06;;;;;;;352.17;129.50;;;;;;;7.55;94.28;100810.38;311773;31;2989;-74
2022/11/14 00:13:17;;;;;;;354.95;129.27;;;;;;;7.54;94.22;100805.16;315168;31;902;-74
2022/11/14 00:13:27;;;;;;;355.00;129.75;;;;;;;7.53;94.24;100804.31;311189;31;2815;-74
2022/11/14 00:13:37;;;;;;;351.53;129.57;;;;;;;7.54;94.03;100811.25;309285;31;3367;-74
2022/11/14 00:13:48;;;;;;;348.20;127.90;;;;;;;7.54;93.73;100806.03;311900;31;811;-74
2022/11/14 00:13:58;;;;;;;346.00;126.70;;;;;;;7.54;93.91;100806.03;312420;31;2970;-74
2022/11/14 00:14:10;;;;;;;344.42;124.75;;;;;;;7.55;93.86;100806.91;310544;31;2265;-74
2022/11/14 00:14:20;;;;;;;349.98;126.75;;;;;;;7.55;94.14;100806.91;306969;32;2141;-74
2022/11/14 00:14:30;;;;;;;349.88;126.40;;;;;;;7.56;94.10;100804.28;303403;32;1308;-74
2022/11/14 00:14:41;;;;;;;351.83;129.10;;;;;;;7.57;93.78;100806.00;307933;31;2970;-74
2022/11/14 00:14:51;;;;;;;347.30;127.40;;;;;;;7.58;94.21;100807.72;307015;32;3675;-74
2022/11/14 00:15:02;;;;;;;350.67;130.63;;;;;;;7.58;93.61;100805.13;306421;32;777;-74
2022/11/14 00:15:13;;;;;;;349.50;130.63;;;;;;;7.57;94.00;100798.19;306488;32;4112;-74
2022/11/14 00:15:23;;;;;;;351.10;133.50;;;;;;;7.57;93.96;100795.59;303139;32;4556;-74
2022/11/14 00:15:33;;;;;;;349.90;131.52;;;;;;;7.58;94.18;100802.53;302203;32;1168;-73
2022/11/14 00:15:46;;;;;;;349.33;129.63;;;;;;;7.56;94.00;100801.66;296511;33;1540;-73
2022/11/14 00:15:56;;;;;;;353.98;130.55;;;;;;;7.54;93.78;100800.81;295385;33;4447;-74
2022/11/14 00:16:07;;;;;;;354.07;130.37;;;;;;;7.55;93.89;100802.56;294842;33;4424;-73
2022/11/14 00:16:17;;;;;;;352.40;132.30;;;;;;;7.56;94.23;100806.88;297121;33;925;-73
2022/11/14 00:16:27;;;;;;;348.53;130.10;;;;;;;7.55;94.17;100802.56;295365;33;2893;-73
2022/11/14 00:16:38;;;;;;;346.35;127.90;;;;;;;7.55;93.63;100801.69;293416;33;2994;-73
2022/11/14 00:16:48;;;;;;;346.97;128.70;;;;;;;7.57;94.34;100807.75;295133;33;850;-73
2022/11/14 00:16:59;;;;;;;346.47;129.40;;;;;;;7.57;94.27;100800.78;293333;33;4239;-73
2022/11/14 00:17:09;;;;;;;346.67;129.52;;;;;;;7.57;94.15;100798.19;290988;33;6031;-73
2022/11/14 00:17:19;;;;;;;344.13;125.27;;;;;;;7.56;93.69;100803.41;287623;34;6158;-73
2022/11/14 00:17:30;;;;;;;348.50;126.45;;;;;;;7.55;94.09;100799.94;285648;34;852;-75
2022/11/14 00:17:40;;;;;;;350.37;127.87;;;;;;;7.55;93.78;100802.56;284958;34;7925;-75
2022/11/14 00:17:50;;;;;;;351.25;129.02;;;;;;;7.58;93.72;100802.53;283252;34;7926;-74
2022/11/14 00:18:01;;;;;;;349.13;126.13;;;;;;;7.57;94.37;100799.94;287424;34;866;-74
2022/11/14 00:18:11;;;;;;;349.43;125.80;;;;;;;7.55;93.53;100801.69;289245;33;6184;-74
2022/11/14 00:18:22;;;;;;;350.53;126.80;;;;;;;7.55;93.74;100799.09;285317;34;6263;-74
2022/11/14 00:18:32;;;;;;;349.30;126.93;;;;;;;7.56;93.66;100799.06;280982;35;818;-74
2022/11/14 00:18:43;;;;;;;346.20;126.93;;;;;;;7.56;93.95;100799.06;284246;34;4085;-74
2022/11/14 00:18:53;;;;;;;345.57;128.20;;;;;;;7.57;93.88;100795.59;284295;34;4623;-74
2022/11/14 00:19:03;;;;;;;351.20;128.60;;;;;;;7.59;93.87;100803.38;284591;34;1314;-74
2022/11/14 00:19:14;;;;;;;352.77;128.77;;;;;;;7.60;93.55;100805.13;273129;36;1185;-74
2022/11/14 00:19:24;;;;;;;352.45;128.52;;;;;;;7.61;93.40;100802.50;274428;35;8995;-74
2022/11/14 00:19:35;;;;;;;350.07;129.43;;;;;;;7.62;93.43;100800.75;275574;35;8108;-73
2022/11/14 00:19:45;;;;;;;348.83;128.48;;;;;;;7.62;93.54;100799.00;277395;35;1249;-73
2022/11/14 00:19:55;;;;;;;347.53;127.20;;;;;;;7.61;93.40;100792.06;277390;34;9805;-74
2022/11/14 00:20:07;;;;;;;346.50;126.07;;;;;;;7.61;93.72;100797.28;274905;35;11221;-74
2022/11/14 00:20:17;;;;;;;349.23;128.30;;;;;;;7.63;93.57;100795.53;274788;36;1365;-73
2022/11/14 00:22:11;;;;;;;338.48;120.42;;;;;;;7.63;93.81;100798.13;2492860;27;20270;-74
2022/11/14 00:22:22;;;;;;;347.97;126.20;;;;;;;7.62;93.51;100796.41;353189;28;920;-74
2022/11/14 00:22:32;;;;;;;347.95;127.38;;;;;;;7.62;93.75;100793.81;350395;28;831;-75
2022/11/14 00:22:42;;;;;;;348.77;126.93;;;;;;;7.62;93.78;100801.63;350086;28;1213;-75
2022/11/14 00:22:53;;;;;;;348.60;128.93;;;;;;;7.63;93.95;100800.75;348091;28;1618;-74
2022/11/14 00:23:03;;;;;;;348.10;127.73;;;;;;;7.61;93.63;100797.28;347028;28;796;-74
2022/11/14 00:23:13;;;;;;;346.48;128.20;;;;;;;7.61;93.35;100794.69;348420;28;1598;-74
2022/11/14 00:23:24;;;;;;;346.00;125.67;;;;;;;7.61;93.67;100797.28;345889;28;1271;-74
2022/11/14 00:23:34;;;;;;;345.17;127.20;;;;;;;7.62;93.52;100792.94;346213;28;860;-74
2022/11/14 00:23:45;;;;;;;350.27;127.35;;;;;;;7.62;93.46;100796.41;346103;28;1197;-74
2022/11/14 00:23:55;;;;;;;351.80;128.27;;;;;;;7.62;93.28;100796.41;344444;28;1330;-74
2022/11/14 00:24:05;;;;;;;350.75;124.30;;;;;;;7.61;93.55;100793.81;343550;28;817;-74
2022/11/14 00:24:16;;;;;;;345.10;122.57;;;;;;;7.62;93.52;100799.00;344462;28;1311;-74
2022/11/14 00:24:26;;;;;;;344.90;124.22;;;;;;;7.60;93.63;100794.69;342415;28;1050;-74
2022/11/14 00:24:37;;;;;;;344.00;126.73;;;;;;;7.59;93.75;100793.81;346579;28;1170;-74
2022/11/14 00:24:47;;;;;;;344.90;126.83;;;;;;;7.61;93.49;100797.28;347025;28;1614;-74
2022/11/14 00:24:58;;;;;;;345.83;126.87;;;;;;;7.61;93.47;100792.06;346134;28;946;-74
2022/11/14 00:25:08;;;;;;;348.38;127.65;;;;;;;7.60;93.49;100794.69;347672;28;903;-74
2022/11/14 00:25:19;;;;;;;348.58;129.73;;;;;;;7.60;94.17;100789.47;346184;28;1187;-74
2022/11/14 00:25:30;;;;;;;345.90;129.67;;;;;;;7.59;93.71;100792.97;346119;28;1044;-74
2022/11/14 00:25:42;;;;;;;345.04;129.18;;;;;;;7.58;94.07;100789.50;345019;28;924;-74
2022/11/14 00:25:52;;;;;;;343.92;127.07;;;;;;;7.59;93.92;100799.03;344025;28;1232;-74
2022/11/14 00:26:03;;;;;;;344.23;125.68;;;;;;;7.59;93.46;100799.03;344162;28;1546;-74
2022/11/14 00:26:13;;;;;;;342.50;125.70;;;;;;;7.57;93.80;100790.38;346495;28;1454;-74
2022/11/14 00:26:23;;;;;;;343.58;124.93;;;;;;;7.60;93.95;100790.34;346055;28;1300;-74
2022/11/14 00:26:34;;;;;;;343.67;125.77;;;;;;;7.60;93.54;100792.94;343445;28;1319;-74
2022/11/14 00:26:44;;;;;;;343.80;125.93;;;;;;;7.60;93.54;100795.56;343667;28;821;-74
2022/11/14 00:26:55;;;;;;;346.30;128.10;;;;;;;7.60;93.89;100790.34;344856;28;1026;-74
2022/11/14 00:27:05;;;;;;;348.83;128.20;;;;;;;7.60;93.76;100797.31;346123;28;801;-74
2022/11/14 00:27:15;;;;;;;348.73;127.28;;;;;;;7.61;93.63;100794.69;346232;28;880;-74
2022/11/14 00:27:26;;;;;;;349.97;129.30;;;;;;;7.61;93.80;100792.06;346732;28;1600;-73
2022/11/14 00:27:36;;;;;;;349.88;130.05;;;;;;;7.63;93.50;100790.31;346574;28;1208;-74
2022/11/14 00:27:47;;;;;;;350.23;130.27;;;;;;;7.63;93.62;100795.53;346579;28;1229;-73
2022/11/14 00:27:58;;;;;;;347.70;128.50;;;;;;;7.65;93.75;100790.31;347544;28;1562;-74
2022/11/14 00:28:08;;;;;;;346.33;127.18;;;;;;;7.64;93.33;100789.44;347969;28;1272;-74
2022/11/14 00:28:18;;;;;;;344.97;128.03;;;;;;;7.65;93.49;100792.91;346513;28;999;-74
2022/11/14 00:28:29;;;;;;;342.63;126.57;;;;;;;7.65;93.45;100791.16;343469;28;1443;-74
2022/11/14 00:28:39;;;;;;;343.48;128.38;;;;;;;7.64;93.67;100801.59;347203;28;1094;-73
2022/11/14 00:28:49;;;;;;;341.40;127.47;;;;;;;7.64;93.61;100792.03;344715;28;1715;-73
2022/11/14 00:29:00;;;;;;;346.88;130.55;;;;;;;7.64;93.76;100791.19;344939;28;853;-74
2022/11/14 00:29:11;;;;;;;349.93;131.10;;;;;;;7.65;93.72;100787.69;340902;29;950;-74
2022/11/14 00:29:22;;;;;;;351.05;130.50;;;;;;;7.65;93.75;100798.97;344071;28;1525;-74
2022/11/14 00:29:32;;;;;;;345.90;131.07;;;;;;;7.66;93.34;100798.09;342342;28;1367;-74
2022/11/14 00:29:42;;;;;;;344.30;129.47;;;;;;;7.65;93.66;100793.78;343572;28;1178;-73
2022/11/14 00:29:53;;;;;;;346.70;129.95;;;;;;;7.63;93.75;100787.72;342520;28;952;-73
2022/11/14 00:30:03;;;;;;;348.00;128.90;;;;;;;7.63;93.74;100795.53;341184;28;1624;-73
2022/11/14 00:30:14;;;;;;;349.50;131.48;;;;;;;7.60;93.66;100790.34;339487;29;1700;-75
2022/11/14 00:30:25;;;;;;;349.83;131.48;;;;;;;7.60;93.89;100789.47;340553;28;1593;-74
2022/11/14 00:30:35;;;;;;;349.60;131.00;;;;;;;7.61;93.89;100792.06;339274;29;1415;-74
2022/11/14 00:30:48;;;;;;;350.20;131.17;;;;;;;7.60;93.87;100790.34;337058;28;1629;-74
2022/11/14 00:30:59;;;;;;;350.40;133.35;;;;;;;7.61;93.89;100791.22;338229;29;1079;-74
2022/11/14 00:31:10;;;;;;;350.13;132.25;;;;;;;7.60;93.77;100790.34;338287;29;1368;-74
2022/11/14 00:31:20;;;;;;;350.35;133.32;;;;;;;7.58;94.11;100794.72;336773;29;879;-73
2022/11/14 00:31:30;;;;;;;349.53;134.33;;;;;;;7.59;94.27;100787.75;341965;28;1198;-75
2022/11/14 00:31:41;;;;;;;348.02;132.68;;;;;;;7.58;93.91;100794.72;340770;28;1249;-75
2022/11/14 00:31:51;;;;;;;347.20;131.43;;;;;;;7.59;93.78;100788.63;339984;29;1107;-75
2022/11/14 00:32:02;;;;;;;351.37;130.53;;;;;;;7.59;94.02;100785.16;337612;29;1991;-75
2022/11/14 00:32:12;;;;;;;352.13;129.70;;;;;;;7.59;93.55;100788.63;334356;29;1385;-74
2022/11/14 00:32:22;;;;;;;351.57;129.90;;;;;;;7.59;93.77;100788.63;338125;29;1860;-74
2022/11/14 00:32:33;;;;;;;345.85;128.45;;;;;;;7.57;94.10;100781.69;335791;29;1787;-74
2022/11/14 00:32:43;;;;;;;343.23;127.07;;;;;;;7.58;94.10;100791.25;334380;29;1404;-74
2022/11/14 00:32:54;;;;;;;345.10;127.45;;;;;;;7.58;93.91;100786.91;334820;29;2002;-74
2022/11/14 00:33:04;;;;;;;348.20;129.37;;;;;;;7.58;93.78;100786.91;333877;29;2254;-74
2022/11/14 00:33:14;;;;;;;350.02;130.07;;;;;;;7.59;94.41;100793.81;334187;29;1300;-74
2022/11/14 00:33:25;;;;;;;352.90;129.90;;;;;;;7.58;94.03;100786.91;335559;29;1735;-74
2022/11/14 00:33:36;;;;;;;352.70;130.85;;;;;;;7.59;93.68;100788.63;335879;29;1234;-74
2022/11/14 00:33:46;;;;;;;351.52;133.00;;;;;;;7.59;93.74;100790.38;332739;29;1130;-74
2022/11/14 00:33:57;;;;;;;347.87;130.93;;;;;;;7.58;93.53;100786.03;331896;29;934;-74
2022/11/14 00:34:07;;;;;;;348.83;127.53;;;;;;;7.57;93.79;100785.16;328698;30;2584;-74
2022/11/14 00:34:18;;;;;;;350.60;128.10;;;;;;;7.58;93.76;100792.09;324762;30;2006;-74
2022/11/14 00:34:28;;;;;;;349.67;129.77;;;;;;;7.59;94.14;100786.00;323992;30;1188;-74
2022/11/14 00:34:38;;;;;;;348.67;132.97;;;;;;;7.59;93.84;100788.63;323763;30;2425;-74
2022/11/14 00:34:49;;;;;;;348.63;133.05;;;;;;;7.59;93.74;100788.63;319875;30;2567;-74
2022/11/14 00:34:59;;;;;;;348.73;133.60;;;;;;;7.61;93.75;100791.22;317543;31;874;-74
2022/11/14 00:35:10;;;;;;;349.33;133.30;;;;;;;7.61;93.99;100780.78;321512;30;2374;-74
2022/11/14 00:35:20;;;;;;;347.02;132.00;;;;;;;7.60;93.97;100785.13;319854;30;2742;-74
2022/11/14 00:35:30;;;;;;;348.17;128.90;;;;;;;7.62;94.13;100793.81;319585;30;1980;-75
2022/11/14 00:35:49;;;;;;;347.67;128.25;;;;;;;7.59;93.63;100790.38;319148;30;1374;-74
2022/11/14 00:35:59;;;;;;;347.33;127.85;;;;;;;7.60;93.80;100794.69;317335;31;1196;-74
2022/11/14 00:36:10;;;;;;;349.25;126.85;;;;;;;7.59;93.85;100788.63;312714;31;2067;-74
2022/11/14 00:36:20;;;;;;;350.77;128.17;;;;;;;7.59;94.01;100788.63;313683;31;2471;-73
2022/11/14 00:36:31;;;;;;;354.23;130.60;;;;;;;7.57;93.39;100782.56;314741;31;3048;-74
2022/11/14 00:36:41;;;;;;;354.37;132.87;;;;;;;7.59;93.98;100787.75;317533;31;782;-74
2022/11/14 00:36:51;;;;;;;354.08;133.35;;;;;;;7.59;93.74;100792.97;314564;31;3654;-75
2022/11/14 00:37:02;;;;;;;348.97;133.30;;;;;;;7.57;93.54;100790.38;311469;31;3386;-74
2022/11/14 00:37:12;;;;;;;347.70;133.20;;;;;;;7.55;93.80;100781.72;312992;31;885;-74
2022/11/14 00:37:23;;;;;;;348.07;131.77;;;;;;;7.55;93.70;100794.75;310445;31;3313;-74
2022/11/14 00:37:33;;;;;;;349.92;130.55;;;;;;;7.55;93.57;100792.13;311415;31;3541;-74
2022/11/14 00:37:44;;;;;;;351.67;130.33;;;;;;;7.56;94.25;100788.66;310813;31;891;-75
2022/11/14 00:37:54;;;;;;;352.55;129.00;;;;;;;7.57;93.57;100787.78;314388;31;2586;-75
2022/11/14 00:38:05;;;;;;;353.27;129.70;;;;;;;7.56;93.50;100785.19;313542;31;2116;-74
2022/11/14 00:38:15;;;;;;;351.45;129.00;;;;;;;7.55;93.83;100781.72;310696;31;1064;-74
2022/11/14 00:38:25;;;;;;;348.50;131.07;;;;;;;7.56;93.58;100793.00;306220;32;1188;-74
2022/11/14 00:38:36;;;;;;;348.45;132.70;;;;;;;7.54;93.84;100785.19;305412;31;3393;-74
2022/11/14 00:38:46;;;;;;;349.20;133.23;;;;;;;7.54;93.49;100787.78;307016;31;4333;-73
2022/11/14 00:38:56;;;;;;;350.07;129.40;;;;;;;7.53;93.70;100780.00;308397;32;1339;-73
2022/11/14 00:39:11;;;;;;;347.98;127.28;;;;;;;7.54;93.56;100782.59;303719;32;4671;-74
2022/11/14 00:39:22;;;;;;;347.70;125.22;;;;;;;7.55;93.58;100786.06;305455;31;4481;-74
2022/11/14 00:39:32;;;;;;;345.53;126.17;;;;;;;7.55;93.64;100786.91;304501;31;4964;-74
2022/11/14 00:39:43;;;;;;;346.20;128.00;;;;;;;7.54;94.11;100779.97;307599;32;1113;-74
2022/11/14 00:39:53;;;;;;;349.27;131.63;;;;;;;7.54;93.58;100782.59;309755;31;4736;-74
2022/11/14 00:40:04;;;;;;;350.92;132.30;;;;;;;7.53;93.92;100783.47;308543;31;3365;-74
2022/11/14 00:40:14;;;;;;;350.67;133.25;;;;;;;7.53;93.70;100788.69;307292;32;1338;-74
2022/11/14 00:40:25;;;;;;;348.23;133.10;;;;;;;7.54;93.42;100785.19;306013;32;3204;-74
2022/11/14 00:40:35;;;;;;;349.38;131.10;;;;;;;7.54;93.33;100785.19;305080;32;5395;-74
2022/11/14 00:40:46;;;;;;;352.37;132.93;;;;;;;7.53;93.65;100787.81;301064;32;5445;-74
2022/11/14 00:40:56;;;;;;;354.08;133.43;;;;;;;7.54;93.91;100784.34;299171;33;841;-74
2022/11/14 00:41:06;;;;;;;349.83;132.30;;;;;;;7.53;93.48;100786.06;296290;33;6102;-74
2022/11/14 00:41:17;;;;;;;348.88;129.18;;;;;;;7.54;93.79;100785.19;294415;32;6763;-74
2022/11/14 00:41:27;;;;;;;349.23;130.00;;;;;;;7.52;93.66;100780.88;296008;33;1187;-74
2022/11/14 00:41:38;;;;;;;351.13;131.83;;;;;;;7.52;93.20;100781.75;291901;33;6474;-74
2022/11/14 00:41:49;;;;;;;348.77;134.45;;;;;;;7.53;93.38;100786.06;291057;33;6110;-74
2022/11/14 00:41:59;;;;;;;344.77;131.70;;;;;;;7.51;93.85;100780.00;293145;33;891;-75
2022/11/14 00:42:10;;;;;;;343.35;130.43;;;;;;;7.51;93.65;100785.22;292210;33;6653;-74
2022/11/14 00:42:20;;;;;;;345.70;128.83;;;;;;;7.49;93.52;100784.38;291306;33;4852;-73
2022/11/14 00:42:30;;;;;;;348.35;129.60;;;;;;;7.50;93.58;100783.50;288232;33;5035;-73
2022/11/14 00:42:41;;;;;;;351.17;130.83;;;;;;;7.46;93.86;100781.78;290224;34;892;-73
2022/11/14 00:42:51;;;;;;;349.00;130.43;;;;;;;7.47;94.05;100783.53;291999;33;6427;-73
2022/11/14 00:43:02;;;;;;;348.52;129.40;;;;;;;7.48;93.91;100784.38;291217;33;7177;-73
2022/11/14 00:43:12;;;;;;;347.00;129.73;;;;;;;7.47;94.04;100783.53;289348;34;1053;-73
2022/11/14 00:43:22;;;;;;;348.05;129.30;;;;;;;7.48;93.47;100780.03;285312;34;8983;-73
2022/11/14 00:43:33;;;;;;;347.33;128.83;;;;;;;7.47;93.73;100787.88;286605;33;9528;-73
2022/11/14 00:43:43;;;;;;;348.80;130.43;;;;;;;7.48;93.92;100781.78;292246;33;878;-73
2022/11/14 00:43:54;;;;;;;349.17;132.43;;;;;;;7.46;93.67;100787.00;288745;33;9492;-73
2022/11/14 00:44:04;;;;;;;349.98;133.25;;;;;;;7.47;93.47;100783.53;288739;34;8253;-73
2022/11/14 00:44:15;;;;;;;353.40;134.10;;;;;;;7.45;93.61;100779.19;288101;34;1686;-73
2022/11/14 00:46:07;;;;;;;339.32;120.53;;;;;;;7.44;93.76;100780.09;2492668;27;20998;-74
2022/11/14 00:46:17;;;;;;;347.87;126.10;;;;;;;7.45;93.98;100780.06;351670;28;1462;-74
2022/11/14 00:46:28;;;;;;;347.10;127.80;;;;;;;7.46;93.77;100778.31;348464;28;1210;-74
2022/11/14 00:46:38;;;;;;;347.50;128.30;;;;;;;7.47;93.62;100780.91;347621;28;1264;-74
2022/11/14 00:46:48;;;;;;;347.73;127.78;;;;;;;7.45;94.12;100782.66;350266;28;1379;-74
2022/11/14 00:46:59;;;;;;;347.13;126.80;;;;;;;7.43;93.60;100775.75;349192;28;1587;-74
2022/11/14 00:47:09;;;;;;;348.50;128.43;;;;;;;7.41;94.18;100778.38;348398;28;900;-74
2022/11/14 00:47:20;;;;;;;347.02;128.82;;;;;;;7.41;94.16;100778.38;347748;28;1530;-74
2022/11/14 00:47:30;;;;;;;347.42;128.88;;;;;;;7.43;94.09;100775.75;351671;28;1279;-74
2022/11/14 00:47:41;;;;;;;345.77;126.67;;;;;;;7.45;94.14;100777.47;347572;28;1178;-74
2022/11/14 00:47:51;;;;;;;346.15;128.10;;;;;;;7.44;93.97;100778.34;347543;28;1208;-73
2022/11/14 00:48:02;;;;;;;347.57;129.37;;;;;;;7.44;93.54;100778.34;348932;28;935;-73
2022/11/14 00:48:12;;;;;;;348.20;130.23;;;;;;;7.43;94.03;100778.34;350392;28;1370;-73
2022/11/14 00:48:23;;;;;;;349.75;129.18;;;;;;;7.44;93.82;100773.13;350115;28;1592;-73
2022/11/14 00:48:34;;;;;;;353.93;130.17;;;;;;;7.43;93.66;100771.41;349057;28;891;-73
2022/11/14 00:48:44;;;;;;;356.98;128.77;;;;;;;7.44;93.70;100778.34;348955;28;1292;-73
2022/11/14 00:48:54;;;;;;;357.37;128.00;;;;;;;7.45;93.96;100769.66;348896;28;1375;-73
2022/11/14 00:49:05;;;;;;;350.77;127.13;;;;;;;7.47;93.71;100774.84;347978;28;1408;-73
2022/11/14 00:49:15;;;;;;;346.63;127.33;;;;;;;7.46;93.41;100775.72;347328;28;1524;-73
2022/11/14 00:49:26;;;;;;;345.40;128.97;;;;;;;7.43;93.91;100771.41;349552;28;962;-73
2022/11/14 00:49:36;;;;;;;347.50;129.43;;;;;;;7.42;93.93;100774.03;349779;28;1231;-74
2022/11/14 00:49:46;;;;;;;348.67;129.33;;;;;;;7.38;93.73;100777.53;350303;28;808;-73
2022/11/14 00:49:57;;;;;;;348.63;129.60;;;;;;;7.36;94.12;100774.97;349168;28;1312;-73
2022/11/14 00:50:08;;;;;;;348.87;132.03;;;;;;;7.34;93.97;100771.53;347637;28;1117;-73
2022/11/14 00:50:19;;;;;;;346.05;130.05;;;;;;;7.36;94.03;100769.75;347270;28;1027;-73
2022/11/14 00:50:29;;;;;;;345.80;128.07;;;;;;;7.37;93.91;100771.47;347576;28;1073;-73
2022/11/14 00:50:39;;;;;;;345.50;126.90;;;;;;;7.38;93.89;100777.53;348799;28;1550;-73
2022/11/14 00:50:50;;;;;;;346.80;128.53;;;;;;;7.38;93.79;100773.19;349080;28;873;-73
2022/11/14 00:51:00;;;;;;;347.63;130.77;;;;;;;7.38;93.89;100772.31;347625;28;1313;-73
2022/11/14 00:51:11;;;;;;;351.03;130.37;;;;;;;7.35;93.83;100770.63;346323;28;785;-73
2022/11/14 00:51:21;;;;;;;354.67;131.20;;;;;;;7.34;94.62;100776.72;344825;28;1490;-73
2022/11/14 00:51:31;;;;;;;355.57;129.60;;;;;;;7.36;94.36;100771.50;345340;28;1914;-73
2022/11/14 00:51:42;;;;;;;354.97;128.30;;;;;;;7.36;94.47;100779.31;343587;28;863;-73
2022/11/14 00:51:52;;;;;;;354.70;129.63;;;;;;;7.34;94.17;100772.38;343593;28;960;-73
2022/11/14 00:52:03;;;;;;;353.17;129.10;;;;;;;7.33;94.13;100775.00;343331;28;1144;-73
2022/11/14 00:52:13;;;;;;;350.73;129.15;;;;;;;7.34;94.41;100775.00;343745;28;1325;-73
2022/11/14 00:52:23;;;;;;;348.97;128.30;;;;;;;7.34;94.37;100771.53;343879;28;933;-73